Time;durP1;ratioP1;P1;durP2;ratioP2;P2;SDS_P1;SDS_P2;PMS_P1;PMS_P2;Temp;Humidity;BMP_temperature;BMP_pressure;BME280_temperature;BME280_humidity;BME280_pressure;Samples;Min_cycle;Max_cycle;Signal;HPM_P1;HPM_P2
2022/08/15 00:01:12;;;;;;;15.80;12.45;;;;;;;;;;5051319;28;20045;-76
2022/08/15 00:03:40;;;;;;;13.32;11.57;;;;;;;;;;5050780;28;20041;-76
2022/08/15 00:06:09;;;;;;;13.80;11.90;;;;;;;;;;5051171;28;20044;-76
2022/08/15 00:08:39;;;;;;;16.10;12.55;;;;;;;;;;5051249;28;20397;-76
2022/08/15 00:11:08;;;;;;;14.13;11.13;;;;;;;;;;5034916;28;20045;-76
2022/08/15 00:13:34;;;;;;;13.25;11.05;;;;;;;;;;5034926;28;20481;-76
2022/08/15 00:16:00;;;;;;;15.82;10.95;;;;;;;;;;5034352;28;20116;-76
2022/08/15 00:18:28;;;;;;;12.55;10.93;;;;;;;;;;5051463;28;20052;-76
2022/08/15 00:20:54;;;;;;;11.80;10.52;;;;;;;;;;5034104;28;20045;-76
2022/08/15 00:23:22;;;;;;;12.02;10.15;;;;;;;;;;5051422;28;20107;-76
2022/08/15 00:25:49;;;;;;;12.50;11.05;;;;;;;;;;5050881;28;20401;-76
2022/08/15 00:28:16;;;;;;;13.05;9.43;;;;;;;;;;5034533;28;20036;-76
2022/08/15 00:30:44;;;;;;;12.73;9.98;;;;;;;;;;5050434;28;20037;-76
2022/08/15 00:33:11;;;;;;;11.52;10.15;;;;;;;;;;5050916;28;20107;-76
2022/08/15 00:35:37;;;;;;;11.27;9.95;;;;;;;;;;5050879;28;20154;-76
2022/08/15 00:38:09;;;;;;;15.43;11.10;;;;;;;;;;5034110;28;20444;-76
2022/08/15 00:41:39;;;;;;;14.65;11.02;;;;;;;;;;5050995;28;20548;-76
2022/08/15 00:43:22;;;;;;;13.13;11.43;;;;;;;;;;5050980;28;20044;-76
2022/08/15 00:45:49;;;;;;;11.90;10.45;;;;;;;;;;5033421;28;20141;-76
2022/08/15 00:51:02;;;;;;;11.50;9.63;;;;;;;;;;5050769;28;20519;-76
2022/08/15 00:53:28;;;;;;;13.98;10.27;;;;;;;;;;5034036;28;20124;-76
2022/08/15 00:55:56;;;;;;;13.25;11.55;;;;;;;;;;5050528;28;20452;-76
2022/08/15 00:58:22;;;;;;;13.00;11.15;;;;;;;;;;5050564;28;20040;-76
2022/08/15 01:00:48;;;;;;;13.23;11.52;;;;;;;;;;5050122;28;20044;-76
2022/08/15 01:03:20;;;;;;;14.02;11.68;;;;;;;;;;5023790;28;20050;-76
2022/08/15 01:05:49;;;;;;;12.60;11.25;;;;;;;;;;5047489;28;20053;-76
2022/08/15 01:08:17;;;;;;;13.27;11.77;;;;;;;;;;5050687;28;20075;-76
2022/08/15 01:10:43;;;;;;;13.73;11.52;;;;;;;;;;5033923;28;20048;-76
2022/08/15 01:13:09;;;;;;;12.95;11.55;;;;;;;;;;5050594;28;20371;-76
2022/08/15 01:15:36;;;;;;;14.48;12.20;;;;;;;;;;5034008;28;20516;-76
2022/08/15 01:18:02;;;;;;;13.50;12.10;;;;;;;;;;5013917;28;20056;-76
2022/08/15 01:20:30;;;;;;;15.63;11.90;;;;;;;;;;5043680;28;20040;-76
2022/08/15 01:23:04;;;;;;;15.38;12.18;;;;;;;;;;5050500;28;20498;-76
2022/08/15 01:25:36;;;;;;;14.00;11.40;;;;;;;;;;5033917;28;20049;-76
2022/08/15 01:28:05;;;;;;;14.07;11.85;;;;;;;;;;5033497;28;20045;-76
2022/08/15 01:30:51;;;;;;;12.32;11.10;;;;;;;;;;5050564;28;20492;-76
2022/08/15 01:33:19;;;;;;;12.95;10.90;;;;;;;;;;5050191;28;20036;-76
2022/08/15 01:35:48;;;;;;;14.05;11.00;;;;;;;;;;5050581;28;20119;-76
2022/08/15 01:38:33;;;;;;;12.98;11.02;;;;;;;;;;5050355;28;20037;-76
2022/08/15 01:41:05;;;;;;;13.48;9.93;;;;;;;;;;5050152;28;20111;-76
2022/08/15 01:43:33;;;;;;;14.05;12.55;;;;;;;;;;5050565;28;20041;-76
2022/08/15 01:46:02;;;;;;;14.90;11.93;;;;;;;;;;5050467;28;20136;-76
2022/08/15 01:48:34;;;;;;;14.10;12.30;;;;;;;;;;5037170;28;20037;-76
2022/08/15 01:51:02;;;;;;;13.05;11.65;;;;;;;;;;5037105;28;20120;-76
2022/08/15 01:53:32;;;;;;;15.93;11.40;;;;;;;;;;5052054;28;20032;-76
2022/08/15 01:56:09;;;;;;;12.82;10.98;;;;;;;;;;5036841;28;20049;-76
2022/08/15 01:58:37;;;;;;;17.70;11.93;;;;;;;;;;5053505;28;20041;-76
2022/08/15 02:01:08;;;;;;;13.52;11.23;;;;;;;;;;5053476;28;20098;-76
2022/08/15 02:03:35;;;;;;;14.77;12.15;;;;;;;;;;5050085;28;20079;-76
2022/08/15 02:06:09;;;;;;;13.52;11.80;;;;;;;;;;5052104;28;20037;-76
2022/08/15 02:08:36;;;;;;;13.10;11.27;;;;;;;;;;5051317;28;20060;-76
2022/08/15 02:11:03;;;;;;;13.70;11.52;;;;;;;;;;5053289;28;20033;-76
2022/08/15 02:13:29;;;;;;;14.55;11.82;;;;;;;;;;5036820;28;20037;-76
2022/08/15 02:15:56;;;;;;;13.88;11.88;;;;;;;;;;5036356;28;20044;-76
2022/08/15 02:18:22;;;;;;;12.50;11.20;;;;;;;;;;5053871;28;20102;-76
2022/08/15 02:20:48;;;;;;;12.38;10.93;;;;;;;;;;5053257;28;20041;-76
2022/08/15 02:23:14;;;;;;;14.80;12.15;;;;;;;;;;5052817;28;20041;-76
2022/08/15 02:25:40;;;;;;;12.10;10.80;;;;;;;;;;5053205;28;20123;-76
2022/08/15 02:28:06;;;;;;;14.70;11.75;;;;;;;;;;5035852;28;20144;-76
2022/08/15 02:30:34;;;;;;;17.33;12.32;;;;;;;;;;5020177;28;20041;-76
2022/08/15 02:33:00;;;;;;;13.88;11.98;;;;;;;;;;5052845;28;20045;-76
2022/08/15 02:35:27;;;;;;;14.82;13.02;;;;;;;;;;5053106;28;20432;-76
2022/08/15 02:37:53;;;;;;;14.18;12.65;;;;;;;;;;5052918;28;20033;-76
2022/08/15 02:40:19;;;;;;;18.17;12.27;;;;;;;;;;5052444;28;20117;-76
2022/08/15 02:42:46;;;;;;;15.27;13.02;;;;;;;;;;5054160;28;20045;-76
2022/08/15 02:45:13;;;;;;;16.25;13.15;;;;;;;;;;5052181;28;20119;-76
2022/08/15 02:47:41;;;;;;;15.55;12.60;;;;;;;;;;5036186;28;20048;-76
2022/08/15 02:50:08;;;;;;;14.65;11.93;;;;;;;;;;5052367;28;20048;-76
2022/08/15 02:52:39;;;;;;;16.15;12.13;;;;;;;;;;5036210;28;20512;-76
2022/08/15 02:55:07;;;;;;;13.88;11.75;;;;;;;;;;5052637;28;20437;-76
2022/08/15 02:57:33;;;;;;;13.15;11.05;;;;;;;;;;5051322;28;20117;-76
2022/08/15 02:59:59;;;;;;;13.23;11.82;;;;;;;;;;5052024;28;20052;-76
2022/08/15 03:02:26;;;;;;;15.68;12.40;;;;;;;;;;5052149;28;20041;-76
2022/08/15 03:04:52;;;;;;;14.50;11.88;;;;;;;;;;5036173;28;20485;-76
2022/08/15 03:07:18;;;;;;;13.40;11.27;;;;;;;;;;5035410;28;20041;-76
2022/08/15 03:09:44;;;;;;;14.43;12.18;;;;;;;;;;5052113;28;20044;-76
2022/08/15 03:12:14;;;;;;;15.90;11.80;;;;;;;;;;5035491;28;20080;-76
2022/08/15 03:14:41;;;;;;;13.60;12.10;;;;;;;;;;5035576;28;20115;-76
2022/08/15 03:17:11;;;;;;;15.80;12.00;;;;;;;;;;5051753;28;20051;-76
2022/08/15 03:19:37;;;;;;;14.95;12.13;;;;;;;;;;5035489;28;20107;-76
2022/08/15 03:22:03;;;;;;;15.13;12.10;;;;;;;;;;5051645;28;20049;-76
2022/08/15 03:24:32;;;;;;;12.77;10.88;;;;;;;;;;5052249;28;20515;-76
2022/08/15 03:26:59;;;;;;;14.70;12.10;;;;;;;;;;5052336;28;20102;-76
2022/08/15 03:29:26;;;;;;;14.10;11.85;;;;;;;;;;5051560;28;20110;-76
2022/08/15 03:31:52;;;;;;;14.85;11.73;;;;;;;;;;5053190;28;20041;-76
2022/08/15 03:34:20;;;;;;;14.60;11.60;;;;;;;;;;5051374;28;20045;-76
2022/08/15 03:36:46;;;;;;;14.98;11.27;;;;;;;;;;5052040;28;20397;-76
2022/08/15 03:39:13;;;;;;;14.50;11.32;;;;;;;;;;5051511;28;20515;-76
2022/08/15 03:41:40;;;;;;;14.07;11.13;;;;;;;;;;5053102;28;20040;-76
2022/08/15 03:44:06;;;;;;;13.75;11.00;;;;;;;;;;5052487;28;20040;-76
2022/08/15 03:46:32;;;;;;;13.30;11.07;;;;;;;;;;5051650;28;20501;-76
2022/08/15 03:48:58;;;;;;;13.30;10.77;;;;;;;;;;5034749;28;20045;-75
2022/08/15 03:51:26;;;;;;;22.80;12.25;;;;;;;;;;5051346;28;20079;-74
2022/08/15 03:53:59;;;;;;;17.08;11.10;;;;;;;;;;5051610;28;20517;-76
2022/08/15 03:56:26;;;;;;;13.68;11.00;;;;;;;;;;5051439;28;20069;-76
2022/08/15 03:58:54;;;;;;;15.32;11.95;;;;;;;;;;5034938;28;20041;-76
2022/08/15 04:01:22;;;;;;;13.80;11.35;;;;;;;;;;5049868;28;20060;-76
2022/08/15 04:03:48;;;;;;;15.43;12.07;;;;;;;;;;5050577;28;20045;-76
2022/08/15 04:06:16;;;;;;;13.75;11.88;;;;;;;;;;5046599;28;20045;-76
2022/08/15 04:08:45;;;;;;;15.13;12.98;;;;;;;;;;5050885;28;20736;-76
2022/08/15 04:11:12;;;;;;;18.58;12.98;;;;;;;;;;5050781;28;20120;-76
2022/08/15 04:13:39;;;;;;;14.65;12.57;;;;;;;;;;5051557;28;20481;-76
2022/08/15 04:16:06;;;;;;;15.45;12.43;;;;;;;;;;5051054;28;20036;-76
2022/08/15 04:18:32;;;;;;;15.82;12.70;;;;;;;;;;5033944;28;20052;-76
2022/08/15 04:21:00;;;;;;;13.40;11.95;;;;;;;;;;5051284;28;20064;-76
2022/08/15 04:23:27;;;;;;;18.85;12.18;;;;;;;;;;5050873;28;20389;-76
2022/08/15 04:25:53;;;;;;;15.23;11.60;;;;;;;;;;5034576;28;20048;-76
2022/08/15 04:28:20;;;;;;;16.10;12.25;;;;;;;;;;5051800;28;20112;-76
2022/08/15 04:30:47;;;;;;;13.73;11.02;;;;;;;;;;5051213;28;20041;-76
2022/08/15 04:33:13;;;;;;;12.80;11.18;;;;;;;;;;5014346;28;20124;-76
2022/08/15 04:35:40;;;;;;;13.85;11.93;;;;;;;;;;5043441;28;20045;-76
2022/08/15 04:38:06;;;;;;;15.63;12.57;;;;;;;;;;5051038;28;20513;-76
2022/08/15 04:40:32;;;;;;;16.08;13.57;;;;;;;;;;5050542;28;20049;-76
2022/08/15 04:42:58;;;;;;;16.08;13.45;;;;;;;;;;5050856;28;20060;-76
2022/08/15 04:45:26;;;;;;;16.98;12.82;;;;;;;;;;5013973;28;20112;-76
2022/08/15 04:47:52;;;;;;;14.43;12.05;;;;;;;;;;5045787;28;20083;-76
2022/08/15 04:50:19;;;;;;;17.42;12.88;;;;;;;;;;5050173;28;20033;-76
2022/08/15 04:52:55;;;;;;;14.65;12.57;;;;;;;;;;5051026;28;20379;-76
2022/08/15 04:55:24;;;;;;;15.68;12.52;;;;;;;;;;5050291;28;20093;-76
2022/08/15 04:57:50;;;;;;;16.85;13.68;;;;;;;;;;5034547;28;20041;-76
2022/08/15 05:00:18;;;;;;;14.95;12.65;;;;;;;;;;5050637;28;20359;-76
2022/08/15 05:02:57;;;;;;;15.52;12.65;;;;;;;;;;5034343;28;20041;-76
2022/08/15 05:05:23;;;;;;;15.02;11.50;;;;;;;;;;5050192;28;20079;-76
2022/08/15 05:07:50;;;;;;;16.40;12.88;;;;;;;;;;5050448;28;20045;-76
2022/08/15 05:10:16;;;;;;;15.88;12.90;;;;;;;;;;5050181;28;20090;-76
2022/08/15 05:12:43;;;;;;;17.00;13.57;;;;;;;;;;5034313;28;20048;-76
2022/08/15 05:15:10;;;;;;;17.77;13.75;;;;;;;;;;5050519;28;20080;-76
2022/08/15 05:17:36;;;;;;;17.67;14.52;;;;;;;;;;5050225;28;20037;-76
2022/08/15 05:20:03;;;;;;;16.65;13.82;;;;;;;;;;5050543;28;20190;-76
2022/08/15 05:22:29;;;;;;;17.63;13.30;;;;;;;;;;5053906;28;20045;-76
2022/08/15 05:24:57;;;;;;;16.58;13.60;;;;;;;;;;5054610;28;20056;-76
2022/08/15 05:27:23;;;;;;;14.82;11.93;;;;;;;;;;5053970;28;20041;-76
2022/08/15 05:29:51;;;;;;;17.27;13.35;;;;;;;;;;5053970;28;20076;-76
2022/08/15 05:32:17;;;;;;;18.73;13.35;;;;;;;;;;5053792;28;20045;-76
2022/08/15 05:34:43;;;;;;;14.68;12.73;;;;;;;;;;5054185;28;20041;-76
2022/08/15 05:37:11;;;;;;;12.32;11.02;;;;;;;;;;5054145;28;20055;-76
2022/08/15 05:39:38;;;;;;;12.15;10.20;;;;;;;;;;5053900;28;20095;-76
2022/08/15 05:42:11;;;;;;;17.02;12.88;;;;;;;;;;5054214;28;20121;-76
2022/08/15 05:44:56;;;;;;;17.45;12.63;;;;;;;;;;5053503;28;20265;-76
2022/08/15 05:47:25;;;;;;;14.77;11.67;;;;;;;;;;5024141;28;20044;-76
2022/08/15 05:49:54;;;;;;;16.48;12.25;;;;;;;;;;5053715;28;20068;-76
2022/08/15 05:52:33;;;;;;;16.02;11.90;;;;;;;;;;5053568;28;20389;-76
2022/08/15 05:55:06;;;;;;;15.30;11.77;;;;;;;;;;5054127;28;20386;-77
2022/08/15 05:57:50;;;;;;;11.70;10.43;;;;;;;;;;5023881;28;20047;-76
2022/08/15 06:00:16;;;;;;;14.55;11.98;;;;;;;;;;5053472;28;20071;-77
2022/08/15 06:02:45;;;;;;;13.40;10.73;;;;;;;;;;5053474;28;20512;-76
2022/08/15 06:05:17;;;;;;;11.88;10.63;;;;;;;;;;5053492;28;20090;-76
2022/08/15 06:07:46;;;;;;;14.73;11.57;;;;;;;;;;5054291;28;20396;-77
2022/08/15 06:10:22;;;;;;;15.05;11.70;;;;;;;;;;5053502;28;20040;-77
2022/08/15 06:12:49;;;;;;;14.90;12.13;;;;;;;;;;5053842;28;20128;-77
2022/08/15 06:15:17;;;;;;;16.60;11.77;;;;;;;;;;5036722;28;20048;-77
2022/08/15 06:17:45;;;;;;;14.90;11.20;;;;;;;;;;5053249;28;20547;-77
2022/08/15 06:20:14;;;;;;;14.80;11.45;;;;;;;;;;5053507;28;20056;-77
2022/08/15 06:22:49;;;;;;;11.90;10.52;;;;;;;;;;5052857;28;20049;-77
2022/08/15 06:25:24;;;;;;;13.20;10.63;;;;;;;;;;5040210;28;20094;-77
2022/08/15 06:27:50;;;;;;;11.60;9.60;;;;;;;;;;5053055;28;20049;-77
2022/08/15 06:30:24;;;;;;;12.60;9.85;;;;;;;;;;5036521;28;20048;-77
2022/08/15 06:33:03;;;;;;;11.15;9.98;;;;;;;;;;5053285;28;20045;-77
2022/08/15 06:35:39;;;;;;;11.27;9.98;;;;;;;;;;5039913;28;20090;-77
2022/08/15 06:38:14;;;;;;;11.40;10.20;;;;;;;;;;5036558;28;20043;-77
2022/08/15 06:40:40;;;;;;;12.60;9.95;;;;;;;;;;5053957;28;20159;-77
2022/08/15 06:43:10;;;;;;;12.45;9.18;;;;;;;;;;5053119;28;20091;-77
2022/08/15 06:45:42;;;;;;;11.07;9.90;;;;;;;;;;5052389;28;20056;-77
2022/08/15 06:48:10;;;;;;;11.70;9.57;;;;;;;;;;5053174;28;20497;-76
2022/08/15 06:50:42;;;;;;;14.38;9.68;;;;;;;;;;5052456;28;20393;-77
2022/08/15 06:53:15;;;;;;;12.90;9.15;;;;;;;;;;5052781;28;20128;-77
2022/08/15 06:55:46;;;;;;;11.85;9.20;;;;;;;;;;5035762;28;20434;-77
2022/08/15 06:58:15;;;;;;;10.45;9.15;;;;;;;;;;5052601;28;20166;-77
2022/08/15 07:00:46;;;;;;;9.48;8.48;;;;;;;;;;5035275;28;20037;-77
2022/08/15 07:03:20;;;;;;;10.07;9.05;;;;;;;;;;5052534;28;20117;-77
2022/08/15 07:05:57;;;;;;;11.65;8.88;;;;;;;;;;5052266;28;20519;-77
2022/08/15 07:08:38;;;;;;;11.60;8.98;;;;;;;;;;5053584;28;20045;-77
2022/08/15 07:11:10;;;;;;;10.82;8.88;;;;;;;;;;5052700;28;20036;-77
2022/08/15 07:13:42;;;;;;;10.57;9.55;;;;;;;;;;5035595;28;20029;-76
2022/08/15 07:16:16;;;;;;;12.00;9.15;;;;;;;;;;5035499;28;20051;-76
2022/08/15 07:18:44;;;;;;;11.60;8.80;;;;;;;;;;5052226;28;20111;-76
2022/08/15 07:21:12;;;;;;;10.95;8.75;;;;;;;;;;5052175;28;20120;-76
2022/08/15 07:23:58;;;;;;;13.15;8.60;;;;;;;;;;5035227;28;20124;-76
2022/08/15 07:26:25;;;;;;;10.30;7.75;;;;;;;;;;5068807;28;20520;-76
2022/08/15 07:28:51;;;;;;;13.93;8.30;;;;;;;;;;5051747;28;20049;-77
2022/08/15 07:31:20;;;;;;;8.63;7.72;;;;;;;;;;5051766;28;20128;-77
2022/08/15 07:33:47;;;;;;;10.95;9.20;;;;;;;;;;5051876;28;20041;-76
2022/08/15 07:36:24;;;;;;;11.05;9.32;;;;;;;;;;5052007;28;20041;-76
2022/08/15 07:38:50;;;;;;;12.68;9.00;;;;;;;;;;5038152;28;20044;-77
2022/08/15 07:41:27;;;;;;;12.52;9.05;;;;;;;;;;5051639;28;20051;-77
2022/08/15 07:44:14;;;;;;;10.65;9.02;;;;;;;;;;5050919;28;20049;-77
2022/08/15 07:46:44;;;;;;;9.80;8.50;;;;;;;;;;5034572;28;20056;-77
2022/08/15 07:49:24;;;;;;;11.98;9.20;;;;;;;;;;5051707;28;20053;-78
2022/08/15 07:51:59;;;;;;;9.50;8.52;;;;;;;;;;5051072;28;20116;-78
2022/08/15 07:54:38;;;;;;;10.30;8.82;;;;;;;;;;5051787;28;20503;-77
2022/08/15 07:57:06;;;;;;;11.18;9.20;;;;;;;;;;5051445;28;20048;-78
2022/08/15 07:59:37;;;;;;;9.98;8.07;;;;;;;;;;5051531;28;20049;-78
2022/08/15 08:02:20;;;;;;;8.73;7.20;;;;;;;;;;5051446;28;20072;-78
2022/08/15 08:04:46;;;;;;;8.45;7.32;;;;;;;;;;5054294;28;20052;-78
2022/08/15 08:07:19;;;;;;;8.75;7.10;;;;;;;;;;5051411;28;20099;-78
2022/08/15 08:09:55;;;;;;;8.38;7.50;;;;;;;;;;5034121;28;20110;-78
2022/08/15 08:12:27;;;;;;;10.27;8.50;;;;;;;;;;5051283;28;20041;-78
2022/08/15 08:15:05;;;;;;;12.30;8.80;;;;;;;;;;5050931;28;20124;-77
2022/08/15 08:17:36;;;;;;;9.43;8.27;;;;;;;;;;5034726;28;20048;-78
2022/08/15 08:20:08;;;;;;;9.57;8.60;;;;;;;;;;5051313;28;20139;-77
2022/08/15 08:22:39;;;;;;;13.57;8.32;;;;;;;;;;5051355;28;20579;-77
2022/08/15 08:25:08;;;;;;;9.35;7.80;;;;;;;;;;5050961;28;20052;-77
2022/08/15 08:27:51;;;;;;;10.65;8.70;;;;;;;;;;5050894;28;20037;-78
2022/08/15 08:30:25;;;;;;;10.73;9.45;;;;;;;;;;5020538;28;20045;-77
2022/08/15 08:33:10;;;;;;;10.27;8.27;;;;;;;;;;5033841;28;20124;-78
2022/08/15 08:35:36;;;;;;;;;;;;;;;;;;5039765;28;20520;-78
2022/08/15 08:38:13;;;;;;;11.88;9.10;;;;;;;;;;5034098;28;20003;-78
2022/08/15 08:43:42;;;;;;;11.85;9.20;;;;;;;;;;5050881;28;20124;-77
2022/08/15 08:46:28;;;;;;;10.38;8.77;;;;;;;;;;5034216;28;20055;-78
2022/08/15 08:49:05;;;;;;;10.77;8.35;;;;;;;;;;5050439;28;20119;-77
2022/08/15 08:51:40;;;;;;;10.88;8.68;;;;;;;;;;5050723;28;20094;-78
2022/08/15 08:54:06;;;;;;;14.32;9.32;;;;;;;;;;5038491;28;20052;-78
2022/08/15 08:56:39;;;;;;;12.75;10.10;;;;;;;;;;5052593;28;20040;-78
2022/08/15 08:59:22;;;;;;;15.13;10.48;;;;;;;;;;5037756;28;20124;-78
2022/08/15 09:01:50;;;;;;;17.02;10.95;;;;;;;;;;5054455;28;20049;-78
2022/08/15 09:04:18;;;;;;;12.30;11.00;;;;;;;;;;5038136;28;20047;-78
2022/08/15 09:06:46;;;;;;;12.10;10.90;;;;;;;;;;5054490;28;20056;-77
2022/08/15 09:09:15;;;;;;;15.02;11.32;;;;;;;;;;5038075;28;20045;-78
2022/08/15 09:11:43;;;;;;;12.60;11.43;;;;;;;;;;5038350;28;20029;-78
2022/08/15 09:14:17;;;;;;;17.35;12.20;;;;;;;;;;5054770;28;20127;-78
2022/08/15 09:16:44;;;;;;;14.82;11.88;;;;;;;;;;5041286;28;20040;-78
2022/08/15 09:19:10;;;;;;;12.00;10.80;;;;;;;;;;5054317;28;20120;-78
2022/08/15 09:21:36;;;;;;;13.07;11.70;;;;;;;;;;5054270;28;20041;-78
2022/08/15 09:24:03;;;;;;;13.32;11.48;;;;;;;;;;5054328;28;20041;-78
2022/08/15 09:26:35;;;;;;;12.73;11.43;;;;;;;;;;5054106;28;20040;-78
2022/08/15 09:29:05;;;;;;;11.93;10.68;;;;;;;;;;5054003;28;20385;-78
2022/08/15 09:31:32;;;;;;;14.38;12.25;;;;;;;;;;5054210;28;20045;-78
2022/08/15 09:34:16;;;;;;;12.57;11.27;;;;;;;;;;5037168;28;20041;-78
2022/08/15 09:36:42;;;;;;;;;;;;;;;;;;5054798;28;20508;-78
2022/08/15 09:39:08;;;;;;;12.85;11.23;;;;;;;;;;5053693;28;19917;-78
2022/08/15 09:41:52;;;;;;;11.73;10.48;;;;;;;;;;5053883;28;20052;-78
2022/08/15 09:44:26;;;;;;;13.52;12.13;;;;;;;;;;5055377;28;20048;-78
2022/08/15 09:47:01;;;;;;;11.70;10.55;;;;;;;;;;5053566;28;20056;-77
2022/08/15 09:49:54;;;;;;;15.68;12.43;;;;;;;;;;5053968;28;20049;-77
2022/08/15 09:52:31;;;;;;;14.55;12.25;;;;;;;;;;5036813;28;20127;-77
2022/08/15 09:55:12;;;;;;;16.60;12.32;;;;;;;;;;5053676;28;20048;-77
2022/08/15 09:57:46;;;;;;;12.65;11.35;;;;;;;;;;5053613;28;20036;-77
2022/08/15 10:00:16;;;;;;;17.13;13.00;;;;;;;;;;5036696;28;20055;-77
2022/08/15 10:02:43;;;;;;;15.27;13.63;;;;;;;;;;5053934;28;20087;-77
2022/08/15 10:05:23;;;;;;;11.32;10.23;;;;;;;;;;5036631;28;20047;-77
2022/08/15 10:08:01;;;;;;;11.50;9.15;;;;;;;;;;5036567;28;20040;-77
2022/08/15 10:10:27;;;;;;;10.30;9.30;;;;;;;;;;5054985;28;20049;-77
2022/08/15 10:13:13;;;;;;;11.65;9.07;;;;;;;;;;5053173;28;20445;-77
2022/08/15 10:15:47;;;;;;;10.50;7.90;;;;;;;;;;5053801;28;20193;-76
2022/08/15 10:18:22;;;;;;;11.02;8.65;;;;;;;;;;5036456;28;20064;-77
2022/08/15 10:21:07;;;;;;;13.30;8.90;;;;;;;;;;5053556;28;20551;-76
2022/08/15 10:23:47;;;;;;;10.65;8.30;;;;;;;;;;5033519;28;20041;-76
2022/08/15 10:26:15;;;;;;;14.82;8.48;;;;;;;;;;5048019;28;20048;-77
2022/08/15 10:28:56;;;;;;;10.30;8.23;;;;;;;;;;5053112;28;20616;-77
2022/08/15 10:31:25;;;;;;;11.25;8.30;;;;;;;;;;5036753;28;20394;-76
2022/08/15 10:33:54;;;;;;;13.10;7.57;;;;;;;;;;5053085;28;20048;-77
2022/08/15 10:36:25;;;;;;;10.93;7.22;;;;;;;;;;5053221;28;20033;-77
2022/08/15 10:38:56;;;;;;;9.70;8.55;;;;;;;;;;5053498;28;20378;-76
2022/08/15 10:41:37;;;;;;;16.27;10.52;;;;;;;;;;5053229;28;20520;-76
2022/08/15 10:44:20;;;;;;;15.80;12.52;;;;;;;;;;5023758;28;20049;-76
2022/08/15 10:46:58;;;;;;;15.43;11.00;;;;;;;;;;5036135;28;20057;-77
2022/08/15 10:49:27;;;;;;;15.15;11.70;;;;;;;;;;5052816;28;20048;-77
2022/08/15 10:52:01;;;;;;;15.18;10.73;;;;;;;;;;5053290;28;20510;-77
2022/08/15 10:54:27;;;;;;;16.48;9.30;;;;;;;;;;5052899;28;20049;-76
2022/08/15 10:56:54;;;;;;;11.20;9.18;;;;;;;;;;5036150;28;20044;-77
2022/08/15 10:59:23;;;;;;;12.63;9.50;;;;;;;;;;5036433;28;20505;-76
2022/08/15 11:01:50;;;;;;;13.98;9.70;;;;;;;;;;5053966;28;20033;-76
2022/08/15 11:04:29;;;;;;;12.45;9.50;;;;;;;;;;5035772;28;20040;-76
2022/08/15 11:06:56;;;;;;;10.02;8.00;;;;;;;;;;5052667;28;20045;-76
2022/08/15 11:09:23;;;;;;;11.13;7.68;;;;;;;;;;5035958;28;20075;-76
2022/08/15 11:11:53;;;;;;;11.18;7.72;;;;;;;;;;5052441;28;20041;-75
2022/08/15 11:14:21;;;;;;;11.40;8.52;;;;;;;;;;5053019;28;20095;-76
2022/08/15 11:16:51;;;;;;;8.57;7.50;;;;;;;;;;5052510;28;20258;-76
2022/08/15 11:19:18;;;;;;;11.40;7.65;;;;;;;;;;5051061;28;20126;-77
2022/08/15 11:21:52;;;;;;;10.40;7.68;;;;;;;;;;5052323;28;20037;-76
2022/08/15 11:24:27;;;;;;;12.23;7.82;;;;;;;;;;5035266;28;20049;-76
2022/08/15 11:27:06;;;;;;;9.40;6.72;;;;;;;;;;5052619;28;20088;-76
2022/08/15 11:29:33;;;;;;;9.65;7.18;;;;;;;;;;5062805;28;20171;-76
2022/08/15 11:31:59;;;;;;;10.10;7.75;;;;;;;;;;5051987;28;20094;-76
2022/08/15 11:34:25;;;;;;;11.65;7.22;;;;;;;;;;5052296;28;20052;-76
2022/08/15 11:36:53;;;;;;;11.57;7.85;;;;;;;;;;5052028;28;20041;-76
2022/08/15 11:39:19;;;;;;;11.38;7.38;;;;;;;;;;5051703;28;20094;-76
2022/08/15 11:42:06;;;;;;;10.25;7.20;;;;;;;;;;5051760;28;20048;-76
2022/08/15 11:44:46;;;;;;;11.30;7.53;;;;;;;;;;5051985;28;20499;-76
2022/08/15 11:47:14;;;;;;;12.98;6.90;;;;;;;;;;5051326;28;20083;-76
2022/08/15 11:49:51;;;;;;;15.75;6.70;;;;;;;;;;5035316;28;20037;-76
2022/08/15 11:52:22;;;;;;;10.73;5.78;;;;;;;;;;5034894;28;20032;-76
2022/08/15 11:55:08;;;;;;;10.57;6.65;;;;;;;;;;5052169;28;20112;-77
2022/08/15 11:57:34;;;;;;;;;;;;;;;;;;5035536;28;20039;-77
2022/08/15 12:00:04;;;;;;;13.05;6.43;;;;;;;;;;5051429;28;20004;-77
2022/08/15 12:02:30;;;;;;;10.40;5.45;;;;;;;;;;5051631;28;20401;-76
2022/08/15 12:04:56;;;;;;;10.32;4.80;;;;;;;;;;5050981;28;20093;-77
2022/08/15 12:07:28;;;;;;;11.23;4.88;;;;;;;;;;5049571;28;20485;-77
2022/08/15 12:10:08;;;;;;;7.07;4.80;;;;;;;;;;5037975;28;20406;-77
2022/08/15 12:12:46;;;;;;;9.90;4.20;;;;;;;;;;5050955;28;20037;-77
2022/08/15 12:15:21;;;;;;;6.97;3.50;;;;;;;;;;5047534;28;20033;-78
2022/08/15 12:18:06;;;;;;;9.68;3.92;;;;;;;;;;5032985;28;20520;-79
2022/08/15 12:20:33;;;;;;;7.57;3.90;;;;;;;;;;5040048;28;20037;-78
2022/08/15 12:23:18;;;;;;;6.88;3.60;;;;;;;;;;5034559;28;20100;-77
2022/08/15 12:25:44;;;;;;;7.53;4.07;;;;;;;;;;5051062;28;20041;-78
2022/08/15 12:28:10;;;;;;;6.35;4.20;;;;;;;;;;5033392;28;20037;-78
2022/08/15 12:30:36;;;;;;;6.57;4.13;;;;;;;;;;5033839;28;20105;-78
2022/08/15 12:33:02;;;;;;;6.60;3.90;;;;;;;;;;5034145;28;20041;-77
2022/08/15 12:35:30;;;;;;;5.53;3.80;;;;;;;;;;5049816;28;20037;-78
2022/08/15 12:37:57;;;;;;;6.40;3.70;;;;;;;;;;5051001;28;20049;-78
2022/08/15 12:40:23;;;;;;;4.63;3.55;;;;;;;;;;5014298;28;20379;-78
2022/08/15 12:42:49;;;;;;;8.63;4.10;;;;;;;;;;5021151;28;20041;-78
2022/08/15 12:45:18;;;;;;;6.53;4.00;;;;;;;;;;5048275;28;20068;-78
2022/08/15 12:47:45;;;;;;;6.32;4.90;;;;;;;;;;5050821;28;20049;-78
2022/08/15 12:50:11;;;;;;;7.60;4.63;;;;;;;;;;5050063;28;20124;-78
2022/08/15 12:52:37;;;;;;;8.18;4.30;;;;;;;;;;5051017;28;20048;-78
2022/08/15 12:55:04;;;;;;;6.45;4.15;;;;;;;;;;5050841;28;20128;-78
2022/08/15 12:57:30;;;;;;;5.75;3.92;;;;;;;;;;5050247;28;20509;-78
2022/08/15 12:59:56;;;;;;;8.38;4.22;;;;;;;;;;5014223;28;20068;-78
2022/08/15 13:02:24;;;;;;;6.57;4.15;;;;;;;;;;5050068;28;20049;-78
2022/08/15 13:04:52;;;;;;;5.45;4.15;;;;;;;;;;5034497;28;20077;-78
2022/08/15 13:07:19;;;;;;;6.82;3.90;;;;;;;;;;5050659;28;20053;-78
2022/08/15 13:09:45;;;;;;;5.88;3.42;;;;;;;;;;5049698;28;20127;-79
2022/08/15 13:12:12;;;;;;;7.78;3.50;;;;;;;;;;5048867;28;20048;-79
2022/08/15 13:14:38;;;;;;;5.65;3.47;;;;;;;;;;5036232;28;20513;-78
2022/08/15 13:17:05;;;;;;;5.50;3.40;;;;;;;;;;5023036;28;20052;-79
2022/08/15 13:23:34;;;;;;;5.05;3.20;;;;;;;;;;4992141;28;20076;-78
2022/08/15 13:25:09;;;;;;;6.07;3.28;;;;;;;;;;5043491;28;20124;-77
2022/08/15 13:27:36;;;;;;;4.57;2.92;;;;;;;;;;5038274;28;20050;-77
2022/08/15 13:30:05;;;;;;;6.35;2.97;;;;;;;;;;5033303;28;20038;-77
2022/08/15 13:32:31;;;;;;;5.75;3.45;;;;;;;;;;5034861;28;20064;-77
2022/08/15 13:34:57;;;;;;;4.00;3.17;;;;;;;;;;5036154;28;20045;-77
2022/08/15 13:37:25;;;;;;;13.32;3.10;;;;;;;;;;5031230;28;20037;-77
2022/08/15 13:39:53;;;;;;;4.18;3.00;;;;;;;;;;5032599;28;20125;-77
2022/08/15 13:42:19;;;;;;;3.85;2.92;;;;;;;;;;5032230;28;20042;-77
2022/08/15 13:44:46;;;;;;;5.93;2.90;;;;;;;;;;5035635;28;20489;-76
2022/08/15 13:47:14;;;;;;;6.75;3.33;;;;;;;;;;5053712;28;20130;-77
2022/08/15 13:49:41;;;;;;;7.47;2.85;;;;;;;;;;5046523;28;20037;-77
2022/08/15 13:52:07;;;;;;;8.60;3.50;;;;;;;;;;5039594;28;20032;-77
2022/08/15 13:54:33;;;;;;;6.38;3.35;;;;;;;;;;5043771;28;20069;-77
2022/08/15 13:57:00;;;;;;;5.38;3.30;;;;;;;;;;5034991;28;20037;-75
2022/08/15 13:59:27;;;;;;;6.57;3.30;;;;;;;;;;5042490;28;20045;-77
2022/08/15 14:01:53;;;;;;;7.55;3.72;;;;;;;;;;5049495;28;20131;-76
2022/08/15 14:04:27;;;;;;;10.77;3.50;;;;;;;;;;5053075;28;20051;-75
2022/08/15 14:06:54;;;;;;;6.13;3.60;;;;;;;;;;5053705;28;20045;-76
2022/08/15 14:09:21;;;;;;;7.32;3.97;;;;;;;;;;5052693;28;20095;-75
2022/08/15 14:11:47;;;;;;;5.78;4.00;;;;;;;;;;5052935;28;20033;-76
2022/08/15 14:14:14;;;;;;;7.70;4.28;;;;;;;;;;5052833;28;20117;-76
2022/08/15 14:16:42;;;;;;;5.82;4.10;;;;;;;;;;5036360;28;20095;-77
2022/08/15 14:19:10;;;;;;;7.93;3.80;;;;;;;;;;5053119;28;20055;-76
2022/08/15 14:21:36;;;;;;;6.75;4.13;;;;;;;;;;5038742;28;20073;-76
2022/08/15 14:24:03;;;;;;;6.57;4.28;;;;;;;;;;5046358;28;20071;-76
2022/08/15 14:26:30;;;;;;;6.32;4.63;;;;;;;;;;5034410;28;20539;-76
2022/08/15 14:28:56;;;;;;;7.90;4.70;;;;;;;;;;5053114;28;20037;-77
2022/08/15 14:31:23;;;;;;;6.28;4.65;;;;;;;;;;5037562;28;20116;-76
2022/08/15 14:33:49;;;;;;;6.95;4.65;;;;;;;;;;5037960;28;20486;-76
2022/08/15 14:36:15;;;;;;;7.28;4.55;;;;;;;;;;5050179;28;20037;-76
2022/08/15 14:38:42;;;;;;;6.65;4.75;;;;;;;;;;5038064;28;20148;-75
2022/08/15 14:41:09;;;;;;;5.53;4.70;;;;;;;;;;5041700;28;20045;-76
2022/08/15 14:43:35;;;;;;;7.97;5.85;;;;;;;;;;5042423;28;20061;-75
2022/08/15 14:46:03;;;;;;;9.18;6.40;;;;;;;;;;5030714;28;20056;-76
2022/08/15 14:48:33;;;;;;;9.45;5.85;;;;;;;;;;5041802;28;20175;-76
2022/08/15 14:51:00;;;;;;;12.50;6.57;;;;;;;;;;5037953;28;20509;-76